createdAt,value
2018-06-25T00:01:46.272Z,12.94
2018-06-25T00:04:14.537Z,12.98
2018-06-25T00:06:42.842Z,12.97
2018-06-25T00:09:11.565Z,12.72
2018-06-25T00:11:40.069Z,12.75
2018-06-25T00:14:08.317Z,12.76
2018-06-25T00:16:36.677Z,12.69
2018-06-25T00:19:05.013Z,12.88
2018-06-25T00:21:33.284Z,12.89
2018-06-25T00:24:01.566Z,12.85
2018-06-25T00:26:29.836Z,12.83
2018-06-25T00:28:58.113Z,12.99
2018-06-25T00:31:26.365Z,12.91
2018-06-25T00:33:54.649Z,12.83
2018-06-25T00:36:23.125Z,12.77
2018-06-25T00:38:51.401Z,12.92
2018-06-25T00:41:19.724Z,12.91
2018-06-25T00:43:47.987Z,12.93
2018-06-25T00:46:16.233Z,13.00
2018-06-25T00:48:44.577Z,12.95
2018-06-25T00:51:12.870Z,12.86
2018-06-25T00:53:41.241Z,12.84
2018-06-25T00:56:09.590Z,12.78
2018-06-25T00:58:49.146Z,12.88
2018-06-25T01:01:17.423Z,12.88
2018-06-25T01:03:45.733Z,12.91
2018-06-25T01:06:14.110Z,13.02
2018-06-25T01:08:42.389Z,13.04
2018-06-25T01:11:10.682Z,13.03
2018-06-25T01:13:38.936Z,12.95
2018-06-25T01:16:07.253Z,12.80
2018-06-25T01:18:35.504Z,12.81
2018-06-25T01:21:03.821Z,12.76
2018-06-25T01:23:32.069Z,12.58
2018-06-25T01:26:00.369Z,12.75
2018-06-25T01:28:28.644Z,12.79
2018-06-25T01:30:56.929Z,12.92
2018-06-25T01:33:25.178Z,12.82
2018-06-25T01:35:53.508Z,12.82
2018-06-25T01:38:21.760Z,12.92
2018-06-25T01:40:50.034Z,12.92
2018-06-25T01:43:18.330Z,12.97
2018-06-25T01:45:46.613Z,12.94
2018-06-25T01:48:14.864Z,12.93
2018-06-25T01:50:43.160Z,12.83
2018-06-25T01:53:11.572Z,12.69
2018-06-25T01:55:39.861Z,12.66
2018-06-25T01:58:08.121Z,12.65
2018-06-25T02:00:36.453Z,12.63
2018-06-25T02:03:04.729Z,12.70
2018-06-25T02:05:32.996Z,12.76
2018-06-25T02:08:01.297Z,12.93
2018-06-25T02:10:29.556Z,12.84
2018-06-25T02:12:58.110Z,12.95
2018-06-25T02:15:26.369Z,12.88
2018-06-25T02:17:54.774Z,12.80
2018-06-25T02:20:23.041Z,12.84
2018-06-25T02:22:51.361Z,12.94
2018-06-25T02:25:19.625Z,12.98
2018-06-25T02:27:47.921Z,13.11
2018-06-25T02:30:16.193Z,13.13
2018-06-25T02:32:44.491Z,13.12
2018-06-25T02:35:12.788Z,13.17
2018-06-25T02:37:41.113Z,13.14
2018-06-25T02:40:09.419Z,13.05
2018-06-25T02:42:37.719Z,13.15
2018-06-25T02:45:06.197Z,13.00
2018-06-25T02:47:34.508Z,12.94
2018-06-25T02:50:02.836Z,12.85
2018-06-25T02:52:31.144Z,12.87
2018-06-25T02:54:59.548Z,12.89
2018-06-25T02:57:27.809Z,13.01
2018-06-25T02:59:56.107Z,13.07
2018-06-25T03:02:24.371Z,13.03
2018-06-25T03:04:52.671Z,12.99
2018-06-25T03:07:21.129Z,13.03
2018-06-25T03:09:49.447Z,12.85
2018-06-25T03:12:17.725Z,13.00
2018-06-25T03:14:46.098Z,13.04
2018-06-25T03:17:14.465Z,12.96
2018-06-25T03:19:42.770Z,13.01
2018-06-25T03:22:11.070Z,12.94
2018-06-25T03:24:39.370Z,12.94
2018-06-25T03:27:07.653Z,12.97
2018-06-25T03:29:35.975Z,12.91
2018-06-25T03:32:04.270Z,13.06
2018-06-25T03:34:32.589Z,13.19
2018-06-25T03:37:00.855Z,13.22
2018-06-25T03:39:29.169Z,13.29
2018-06-25T03:41:57.445Z,13.32
2018-06-25T03:44:25.846Z,13.54
2018-06-25T03:46:54.134Z,13.60
2018-06-25T03:49:22.468Z,13.57
2018-06-25T03:51:50.736Z,13.49
2018-06-25T03:54:19.065Z,13.47
2018-06-25T03:56:47.341Z,13.58
2018-06-25T03:59:15.667Z,13.35
2018-06-25T04:01:43.966Z,13.49
2018-06-25T04:04:12.240Z,13.52
2018-06-25T04:06:40.533Z,13.60
2018-06-25T04:09:10.553Z,13.59
2018-06-25T04:11:39.149Z,13.57
2018-06-25T04:14:07.502Z,13.62
2018-06-25T04:16:35.809Z,13.61
2018-06-25T04:19:06.041Z,13.65
2018-06-25T04:21:37.523Z,13.75
2018-06-25T04:24:06.123Z,13.85
2018-06-25T04:26:34.641Z,13.88
2018-06-25T04:29:03.305Z,13.86
2018-06-25T04:31:31.609Z,14.00
2018-06-25T04:34:00.058Z,14.09
2018-06-25T04:36:28.565Z,14.23
2018-06-25T04:38:56.839Z,14.17
2018-06-25T04:41:25.185Z,14.14
2018-06-25T04:43:53.539Z,14.17
2018-06-25T04:46:21.789Z,14.12
2018-06-25T04:48:50.101Z,14.40
2018-06-25T04:51:18.471Z,14.25
2018-06-25T04:53:46.896Z,14.37
2018-06-25T04:56:15.166Z,14.44
2018-06-25T04:58:43.449Z,14.28
2018-06-25T05:01:11.767Z,14.21
2018-06-25T05:03:40.045Z,14.11
2018-06-25T05:06:08.296Z,14.41
2018-06-25T05:08:36.597Z,14.33
2018-06-25T05:11:04.861Z,14.35
2018-06-25T05:13:33.186Z,14.30
2018-06-25T05:16:01.470Z,14.67
2018-06-25T05:18:29.828Z,15.08
2018-06-25T05:20:58.069Z,14.96
2018-06-25T05:23:26.352Z,14.90
2018-06-25T05:25:54.782Z,14.80
2018-06-25T05:28:23.137Z,15.16
2018-06-25T05:30:51.415Z,15.06
2018-06-25T05:33:19.812Z,14.88
2018-06-25T05:35:48.097Z,15.13
2018-06-25T05:38:16.433Z,15.17
2018-06-25T05:40:44.829Z,15.09
2018-06-25T05:43:13.084Z,15.16
2018-06-25T05:45:41.385Z,15.16
2018-06-25T05:48:09.738Z,15.18
2018-06-25T05:50:38.041Z,15.23
2018-06-25T05:53:06.290Z,15.15
2018-06-25T05:55:34.569Z,15.63
2018-06-25T05:58:02.825Z,15.76
2018-06-25T06:00:31.121Z,15.71
2018-06-25T06:02:59.497Z,15.68
2018-06-25T06:05:27.769Z,15.60
2018-06-25T06:07:56.030Z,15.33
2018-06-25T06:10:24.309Z,15.35
2018-06-25T06:12:52.574Z,15.53
2018-06-25T06:15:20.866Z,15.60
2018-06-25T06:17:49.139Z,15.57
2018-06-25T06:20:17.421Z,15.73
2018-06-25T06:22:45.697Z,16.01
2018-06-25T06:25:14.019Z,15.86
2018-06-25T06:27:42.913Z,15.66
2018-06-25T06:30:11.223Z,15.86
2018-06-25T06:32:39.470Z,15.48
2018-06-25T06:35:07.760Z,15.87
2018-06-25T06:37:36.117Z,16.23
2018-06-25T06:40:04.476Z,16.22
2018-06-25T06:42:32.861Z,16.31
2018-06-25T06:45:01.125Z,15.74
2018-06-25T06:47:29.433Z,15.75
2018-06-25T06:49:57.716Z,15.96
2018-06-25T06:52:26.003Z,15.57
2018-06-25T06:54:54.273Z,15.68
2018-06-25T06:57:22.555Z,16.01
2018-06-25T06:59:50.805Z,16.12
2018-06-25T07:02:19.133Z,15.81
2018-06-25T07:04:47.475Z,15.97
2018-06-25T07:07:15.750Z,16.30
2018-06-25T07:09:44.025Z,16.19
2018-06-25T07:12:12.341Z,16.17
2018-06-25T07:14:40.585Z,15.88
2018-06-25T07:17:08.833Z,15.69
2018-06-25T07:19:37.109Z,15.85
2018-06-25T07:22:05.369Z,16.03
2018-06-25T07:24:33.653Z,16.18
2018-06-25T07:27:02.007Z,16.31
2018-06-25T07:29:30.293Z,16.82
2018-06-25T07:31:58.741Z,16.99
2018-06-25T07:35:30.221Z,16.74
2018-06-25T07:37:58.504Z,16.40
2018-06-25T07:40:26.783Z,16.36
2018-06-25T07:42:55.066Z,16.33
2018-06-25T07:45:23.421Z,16.33
2018-06-25T07:47:51.702Z,16.50
2018-06-25T07:50:20.041Z,16.94
2018-06-25T07:52:48.567Z,16.89
2018-06-25T07:55:16.858Z,16.67
2018-06-25T07:57:45.125Z,17.00
2018-06-25T08:00:13.495Z,17.18
2018-06-25T08:02:41.750Z,16.81
2018-06-25T08:05:10.441Z,16.35
2018-06-25T08:07:38.748Z,16.62
2018-06-25T08:10:07.183Z,16.97
2018-06-25T08:12:35.466Z,17.38
2018-06-25T08:15:03.867Z,17.05
2018-06-25T08:17:32.129Z,16.82
2018-06-25T08:20:00.453Z,17.15
2018-06-25T08:22:28.730Z,17.07
2018-06-25T08:24:57.022Z,17.10
2018-06-25T08:27:25.396Z,17.62
2018-06-25T08:29:53.746Z,17.13
2018-06-25T08:32:22.226Z,17.36
2018-06-25T08:34:50.486Z,17.37
2018-06-25T08:37:18.788Z,17.49
2018-06-25T08:39:47.041Z,18.30
2018-06-25T08:42:15.379Z,17.87
2018-06-25T08:44:43.609Z,17.58
2018-06-25T08:47:11.897Z,17.08
2018-06-25T08:49:40.190Z,17.28
2018-06-25T08:52:08.499Z,17.28
2018-06-25T08:54:37.045Z,17.20
2018-06-25T08:57:05.380Z,17.37
2018-06-25T08:59:33.657Z,17.53
2018-06-25T09:02:01.944Z,17.87
2018-06-25T09:04:30.395Z,18.08
2018-06-25T09:06:58.818Z,17.34
2018-06-25T09:09:27.662Z,17.66
2018-06-25T09:11:56.009Z,17.99
2018-06-25T09:14:24.277Z,17.59
2018-06-25T09:16:52.585Z,17.34
2018-06-25T09:19:20.857Z,16.98
2018-06-25T09:21:49.185Z,17.13
2018-06-25T09:24:17.464Z,17.47
2018-06-25T09:26:45.745Z,17.78
2018-06-25T09:29:14.218Z,18.45
2018-06-25T09:31:42.493Z,18.49
2018-06-25T09:34:16.097Z,18.83
2018-06-25T09:36:44.554Z,18.29
2018-06-25T09:39:13.308Z,19.09
2018-06-25T09:41:41.701Z,18.94
2018-06-25T09:44:10.973Z,19.64
2018-06-25T09:46:39.429Z,19.13
2018-06-25T09:49:09.053Z,19.05
2018-06-25T09:51:37.313Z,18.58
2018-06-25T09:54:05.675Z,18.83
2018-06-25T09:56:33.951Z,18.87
2018-06-25T09:59:02.258Z,19.08
2018-06-25T10:01:30.554Z,19.33
2018-06-25T10:03:58.863Z,19.92
2018-06-25T10:06:27.159Z,20.00
2018-06-25T10:08:55.441Z,19.54
2018-06-25T10:11:23.709Z,20.32
2018-06-25T10:13:51.997Z,20.07
2018-06-25T10:16:20.289Z,20.89
2018-06-25T10:18:48.590Z,21.54
2018-06-25T10:21:16.883Z,20.30
2018-06-25T10:23:45.142Z,19.85
2018-06-25T10:26:13.419Z,20.25
2018-06-25T10:28:41.731Z,20.18
2018-06-25T10:31:10.373Z,20.67
2018-06-25T10:33:38.640Z,19.70
2018-06-25T10:36:06.979Z,19.60
2018-06-25T10:38:35.346Z,19.30
2018-06-25T10:41:03.657Z,19.79
2018-06-25T10:43:31.927Z,20.27
2018-06-25T10:46:00.261Z,20.30
2018-06-25T10:48:28.545Z,19.83
2018-06-25T10:50:56.873Z,19.73
2018-06-25T10:53:25.134Z,19.90
2018-06-25T10:55:53.492Z,20.45
2018-06-25T10:58:21.745Z,20.78
2018-06-25T11:00:50.042Z,21.19
2018-06-25T11:03:18.289Z,20.37
2018-06-25T11:05:46.580Z,19.85
2018-06-25T11:08:14.836Z,20.22
2018-06-25T11:10:43.142Z,20.18
2018-06-25T11:13:11.410Z,20.11
2018-06-25T11:15:39.713Z,20.11
2018-06-25T11:18:08.012Z,19.76
2018-06-25T11:20:36.349Z,19.66
2018-06-25T11:23:04.610Z,20.08
2018-06-25T11:25:32.909Z,20.38
2018-06-25T11:28:01.190Z,20.87
2018-06-25T11:30:29.493Z,20.17
2018-06-25T11:32:57.788Z,19.90
2018-06-25T11:35:32.529Z,19.52
2018-06-25T11:38:00.828Z,19.39
2018-06-25T11:40:29.106Z,19.41
2018-06-25T11:42:57.411Z,19.77
2018-06-25T11:45:25.678Z,20.28
2018-06-25T11:47:53.972Z,19.82
2018-06-25T11:50:22.304Z,19.82
2018-06-25T11:52:50.605Z,20.13
2018-06-25T11:55:18.865Z,20.14
2018-06-25T11:57:47.140Z,19.85
2018-06-25T12:00:15.441Z,19.72
2018-06-25T12:02:43.906Z,19.38
2018-06-25T12:05:12.025Z,19.60
2018-06-25T12:07:40.309Z,19.97
2018-06-25T12:10:08.585Z,20.47
2018-06-25T12:12:37.057Z,20.77
2018-06-25T12:15:05.478Z,20.30
2018-06-25T12:17:33.771Z,20.39
2018-06-25T12:20:02.141Z,20.35
2018-06-25T12:22:30.377Z,20.44
2018-06-25T12:24:58.657Z,20.32
2018-06-25T12:27:26.924Z,20.19
2018-06-25T12:29:55.211Z,20.31
2018-06-25T12:32:23.480Z,20.66
2018-06-25T12:34:51.761Z,20.77
2018-06-25T12:37:20.023Z,20.80
2018-06-25T12:39:48.317Z,21.06
2018-06-25T12:42:16.625Z,21.80
2018-06-25T12:44:44.935Z,21.50
2018-06-25T12:47:13.186Z,21.15
2018-06-25T12:49:41.534Z,20.95
2018-06-25T12:52:09.790Z,20.41
2018-06-25T12:54:38.074Z,20.42
2018-06-25T12:57:06.442Z,20.82
2018-06-25T12:59:34.734Z,19.97
2018-06-25T13:02:03.041Z,20.61
2018-06-25T13:04:31.324Z,20.39
2018-06-25T13:06:59.954Z,19.84
2018-06-25T13:09:28.224Z,19.39
2018-06-25T13:11:56.557Z,19.31
2018-06-25T13:14:24.830Z,19.47
2018-06-25T13:16:53.532Z,19.52
2018-06-25T13:19:21.825Z,19.82
2018-06-25T13:21:50.129Z,19.17
2018-06-25T13:24:18.422Z,19.32
2018-06-25T13:26:46.749Z,18.58
2018-06-25T13:29:15.015Z,18.65
2018-06-25T13:31:43.312Z,19.04
2018-06-25T13:34:11.577Z,18.73
2018-06-25T13:36:39.866Z,18.84
2018-06-25T13:39:08.961Z,18.57
2018-06-25T13:41:37.273Z,18.24
2018-06-25T13:44:05.808Z,18.25
2018-06-25T13:46:34.375Z,18.43
2018-06-25T13:49:02.765Z,18.41
2018-06-25T13:51:31.138Z,18.09
2018-06-25T13:53:59.513Z,18.17
2018-06-25T13:56:27.930Z,18.25
2018-06-25T13:58:56.209Z,17.98
2018-06-25T14:01:24.498Z,18.02
2018-06-25T14:03:52.785Z,18.24
2018-06-25T14:06:21.078Z,18.00
2018-06-25T14:08:49.349Z,18.15
2018-06-25T14:11:17.657Z,18.13
2018-06-25T14:13:45.965Z,18.12
2018-06-25T14:16:14.265Z,17.96
2018-06-25T14:18:42.673Z,17.86
2018-06-25T14:21:10.948Z,18.19
2018-06-25T14:23:43.433Z,18.35
2018-06-25T14:26:11.929Z,18.04
2018-06-25T14:28:40.263Z,17.80
2018-06-25T14:31:13.992Z,17.62
2018-06-25T14:33:43.612Z,17.64
2018-06-25T14:36:11.926Z,17.79
2018-06-25T14:38:40.224Z,17.74
2018-06-25T14:41:08.510Z,17.79
2018-06-25T14:43:36.809Z,17.99
2018-06-25T14:46:05.601Z,18.18
2018-06-25T14:48:33.965Z,17.85
2018-06-25T14:51:02.904Z,17.44
2018-06-25T14:53:31.220Z,17.24
2018-06-25T14:55:59.594Z,17.39
2018-06-25T14:58:27.877Z,17.39
2018-06-25T15:00:56.229Z,17.54
2018-06-25T15:03:24.489Z,17.57
2018-06-25T15:05:52.929Z,17.64
2018-06-25T15:08:21.205Z,17.45
2018-06-25T15:10:49.585Z,17.54
2018-06-25T15:13:17.906Z,17.73
2018-06-25T15:15:46.161Z,17.81
2018-06-25T15:18:14.613Z,17.77
2018-06-25T15:20:42.909Z,17.34
2018-06-25T15:23:11.237Z,17.30
2018-06-25T15:25:39.593Z,17.19
2018-06-25T15:28:07.869Z,17.22
2018-06-25T15:30:36.146Z,17.32
2018-06-25T15:33:04.470Z,17.32
2018-06-25T15:35:32.760Z,17.37
2018-06-25T15:38:01.043Z,17.43
2018-06-25T15:40:29.367Z,17.54
2018-06-25T15:42:57.637Z,17.61
2018-06-25T15:45:25.941Z,17.62
2018-06-25T15:47:54.275Z,17.41
2018-06-25T15:50:22.588Z,17.33
2018-06-25T15:52:50.881Z,17.47
2018-06-25T15:55:19.189Z,17.50
2018-06-25T15:57:47.494Z,17.36
2018-06-25T16:00:15.809Z,16.99
2018-06-25T16:02:45.113Z,16.93
2018-06-25T16:05:13.473Z,16.88
2018-06-25T16:07:42.380Z,16.90
2018-06-25T16:10:10.885Z,16.97
2018-06-25T16:12:39.185Z,17.20
2018-06-25T16:15:07.517Z,17.11
2018-06-25T16:17:35.809Z,17.13
2018-06-25T16:20:04.234Z,17.24
2018-06-25T16:22:32.539Z,17.10
2018-06-25T16:25:00.809Z,17.15
2018-06-25T16:27:29.121Z,17.32
2018-06-25T16:29:57.438Z,17.25
2018-06-25T16:32:25.913Z,17.22
2018-06-25T16:34:54.175Z,17.17
2018-06-25T16:37:22.521Z,17.26
2018-06-25T16:39:50.846Z,17.31
2018-06-25T16:42:19.120Z,17.03
2018-06-25T16:44:47.405Z,16.92
2018-06-25T16:47:15.762Z,17.02
2018-06-25T16:49:44.104Z,16.80
2018-06-25T16:52:12.446Z,16.83
2018-06-25T16:54:40.778Z,16.82
2018-06-25T16:57:09.159Z,16.87
2018-06-25T16:59:37.462Z,16.99
2018-06-25T17:02:05.773Z,16.94
2018-06-25T17:04:34.085Z,16.91
2018-06-25T17:07:02.495Z,16.97
2018-06-25T17:09:30.804Z,17.00
2018-06-25T17:11:59.088Z,16.96
2018-06-25T17:14:27.393Z,16.90
2018-06-25T17:16:55.869Z,16.64
2018-06-25T17:19:24.177Z,16.64
2018-06-25T17:21:52.441Z,16.52
2018-06-25T17:24:20.769Z,16.58
2018-06-25T17:26:49.037Z,16.53
2018-06-25T17:29:17.354Z,16.69
2018-06-25T17:31:45.653Z,16.82
2018-06-25T17:34:13.905Z,17.00
2018-06-25T17:36:42.185Z,17.30
2018-06-25T17:39:10.470Z,17.44
2018-06-25T17:41:38.753Z,17.21
2018-06-25T17:44:07.010Z,16.98
2018-06-25T17:46:35.308Z,16.80
2018-06-25T17:49:03.609Z,16.78
2018-06-25T17:51:31.946Z,16.68
2018-06-25T17:54:00.221Z,16.61
2018-06-25T17:56:28.531Z,16.61
2018-06-25T17:58:56.863Z,16.86
2018-06-25T18:01:25.173Z,17.12
2018-06-25T18:03:53.444Z,16.78
2018-06-25T18:06:21.786Z,16.76
2018-06-25T18:08:50.057Z,16.71
2018-06-25T18:11:18.364Z,16.68
2018-06-25T18:13:46.625Z,16.77
2018-06-25T18:16:14.929Z,16.83
2018-06-25T18:18:43.197Z,16.61
2018-06-25T18:21:11.473Z,16.66
2018-06-25T18:23:39.807Z,16.72
2018-06-25T18:26:08.081Z,16.51
2018-06-25T18:28:36.389Z,16.20
2018-06-25T18:31:04.667Z,16.22
2018-06-25T18:33:32.984Z,16.26
2018-06-25T18:36:01.250Z,16.29
2018-06-25T18:38:29.702Z,16.07
2018-06-25T18:40:58.365Z,16.09
2018-06-25T18:43:26.665Z,16.21
2018-06-25T18:45:54.980Z,16.15
2018-06-25T18:48:23.427Z,16.22
2018-06-25T18:50:51.736Z,16.36
2018-06-25T18:53:20.024Z,16.39
2018-06-25T18:55:48.537Z,16.23
2018-06-25T18:58:16.858Z,16.14
2018-06-25T19:00:45.301Z,16.03
2018-06-25T19:03:13.640Z,15.89
2018-06-25T19:05:41.943Z,15.78
2018-06-25T19:08:10.185Z,15.88
2018-06-25T19:10:38.473Z,15.89
2018-06-25T19:13:06.816Z,15.71
2018-06-25T19:15:35.245Z,15.60
2018-06-25T19:18:03.746Z,15.75
2018-06-25T19:20:32.041Z,15.90
2018-06-25T19:23:00.306Z,15.98
2018-06-25T19:25:28.613Z,15.97
2018-06-25T19:27:57.057Z,15.73
2018-06-25T19:30:25.397Z,15.84
2018-06-25T19:32:53.671Z,15.88
2018-06-25T19:35:21.949Z,15.86
2018-06-25T19:37:50.220Z,15.96
2018-06-25T19:40:18.574Z,15.84
2018-06-25T19:42:47.126Z,15.89
2018-06-25T19:45:15.441Z,15.80
2018-06-25T19:47:43.701Z,15.78
2018-06-25T19:50:12.013Z,15.71
2018-06-25T19:52:40.284Z,15.78
2018-06-25T19:55:08.574Z,15.67
2018-06-25T19:57:36.829Z,15.54
2018-06-25T20:00:05.292Z,15.62
2018-06-25T20:02:33.607Z,15.65
2018-06-25T20:05:01.910Z,15.53
2018-06-25T20:07:30.196Z,15.57
2018-06-25T20:09:58.483Z,15.56
2018-06-25T20:12:26.847Z,15.44
2018-06-25T20:14:55.070Z,15.37
2018-06-25T20:17:23.408Z,15.48
2018-06-25T20:19:51.735Z,15.49
2018-06-25T20:22:20.020Z,15.34
2018-06-25T20:24:48.289Z,15.30
2018-06-25T20:27:16.572Z,15.32
2018-06-25T20:29:44.830Z,15.55
2018-06-25T20:32:13.133Z,15.69
2018-06-25T20:34:41.443Z,15.67
2018-06-25T20:37:09.741Z,15.62
2018-06-25T20:39:37.997Z,15.54
2018-06-25T20:42:06.341Z,15.52
2018-06-25T20:44:34.629Z,15.68
2018-06-25T20:47:03.119Z,15.70
2018-06-25T20:49:31.231Z,15.68
2018-06-25T20:51:59.529Z,15.62
2018-06-25T20:54:27.788Z,15.42
2018-06-25T20:56:56.270Z,15.41
2018-06-25T20:59:24.467Z,15.38
2018-06-25T21:01:53.046Z,15.39
2018-06-25T21:04:21.388Z,15.24
2018-06-25T21:06:49.713Z,15.15
2018-06-25T21:09:18.082Z,15.23
2018-06-25T21:11:46.359Z,15.06
2018-06-25T21:14:14.646Z,15.06
2018-06-25T21:16:42.988Z,15.07
2018-06-25T21:19:11.229Z,15.08
2018-06-25T21:21:39.657Z,14.98
2018-06-25T21:24:07.953Z,15.08
2018-06-25T21:26:36.661Z,15.01
2018-06-25T21:29:05.460Z,15.11
2018-06-25T21:31:33.716Z,14.82
2018-06-25T21:34:02.010Z,14.91
2018-06-25T21:36:30.336Z,15.10
2018-06-25T21:38:58.647Z,14.98
2018-06-25T21:41:26.905Z,15.03
2018-06-25T21:43:55.181Z,15.02
2018-06-25T21:46:23.437Z,15.07
2018-06-25T21:48:51.722Z,15.10
2018-06-25T21:51:20.117Z,15.00
2018-06-25T21:53:48.406Z,14.98
2018-06-25T21:56:16.662Z,15.10
2018-06-25T21:58:44.977Z,14.69
2018-06-25T22:01:13.281Z,14.73
2018-06-25T22:03:41.904Z,14.77
2018-06-25T22:06:10.257Z,14.70
2018-06-25T22:08:38.530Z,14.68
2018-06-25T22:11:06.834Z,14.62
2018-06-25T22:13:35.135Z,14.62
2018-06-25T22:16:03.421Z,14.56
2018-06-25T22:18:31.688Z,14.74
2018-06-25T22:20:59.977Z,14.50
2018-06-25T22:23:28.248Z,14.59
2018-06-25T22:25:56.557Z,14.66
2018-06-25T22:28:24.821Z,14.91
2018-06-25T22:30:53.149Z,14.92
2018-06-25T22:33:21.397Z,14.87
2018-06-25T22:35:49.705Z,15.01
2018-06-25T22:38:17.971Z,14.90
2018-06-25T22:40:46.353Z,14.94
2018-06-25T22:43:14.621Z,14.96
2018-06-25T22:45:42.930Z,14.92
2018-06-25T22:48:11.201Z,14.94
2018-06-25T22:50:39.613Z,14.89
2018-06-25T22:53:07.872Z,14.52
2018-06-25T22:55:37.049Z,14.62
2018-06-25T22:58:05.356Z,14.51
2018-06-25T23:00:34.116Z,14.38
2018-06-25T23:03:02.481Z,14.30
2018-06-25T23:05:30.750Z,14.28
2018-06-25T23:07:59.038Z,14.40
2018-06-25T23:10:27.313Z,14.65
2018-06-25T23:12:55.847Z,14.79
2018-06-25T23:15:24.350Z,14.92
2018-06-25T23:17:52.863Z,14.99
2018-06-25T23:20:21.129Z,14.90
2018-06-25T23:22:53.430Z,14.84
2018-06-25T23:25:21.753Z,15.02
2018-06-25T23:27:50.401Z,14.91
2018-06-25T23:30:18.686Z,14.67
2018-06-25T23:32:47.258Z,14.64
2018-06-25T23:35:15.813Z,14.72
2018-06-25T23:37:44.093Z,14.65
2018-06-25T23:40:12.369Z,14.86
2018-06-25T23:42:40.681Z,14.97
2018-06-25T23:45:09.093Z,15.00
2018-06-25T23:47:37.349Z,14.66
2018-06-25T23:50:05.805Z,14.80
2018-06-25T23:52:34.153Z,14.84
2018-06-25T23:55:02.601Z,14.78
2018-06-25T23:57:30.885Z,14.78
2018-06-25T23:59:59.160Z,14.52
